Time;durP1;ratioP1;P1;durP2;ratioP2;P2;SDS_P1;SDS_P2;PMS_P1;PMS_P2;Temp;Humidity;BMP_temperature;BMP_pressure;BME280_temperature;BME280_humidity;BME280_pressure;Samples;Min_cycle;Max_cycle;Signal;HPM_P1;HPM_P2
2022/05/16 00:00:45;;;;;;;7.97;5.28;;;;;;;13.87;78.52;94997.19;5047688;28;20209;-75
2022/05/16 00:03:12;;;;;;;7.95;5.47;;;;;;;13.84;78.02;94995.94;5031084;28;20691;-75
2022/05/16 00:05:39;;;;;;;14.45;4.70;;;;;;;13.81;78.12;94984.91;5034108;28;20200;-75
2022/05/16 00:08:07;;;;;;;8.23;5.25;;;;;;;13.73;77.74;94988.53;5040126;28;20224;-75
2022/05/16 00:10:36;;;;;;;9.05;6.30;;;;;;;13.70;78.17;94983.75;5043220;28;20568;-75
2022/05/16 00:13:03;;;;;;;8.45;6.32;;;;;;;13.72;78.04;94985.03;5041002;28;20230;-75
2022/05/16 00:15:31;;;;;;;7.18;5.25;;;;;;;13.63;78.31;94980.81;5046016;28;20311;-74
2022/05/16 00:17:58;;;;;;;8.52;5.68;;;;;;;13.44;78.51;94968.53;5041794;28;20204;-76
2022/05/16 00:20:25;;;;;;;9.15;5.93;;;;;;;13.55;78.28;94984.41;5037027;28;20686;-75
2022/05/16 00:22:52;;;;;;;10.88;5.32;;;;;;;13.57;78.30;94993.03;5039098;28;20323;-75
2022/05/16 00:25:19;;;;;;;8.88;5.00;;;;;;;13.73;77.71;94988.53;5035137;28;20204;-74
2022/05/16 00:27:48;;;;;;;9.77;5.43;;;;;;;13.55;78.05;94979.78;5039728;28;20215;-76
2022/05/16 00:30:17;;;;;;;9.02;5.53;;;;;;;13.46;78.61;94995.41;5048057;28;20234;-76
2022/05/16 00:32:47;;;;;;;9.55;5.22;;;;;;;13.34;79.25;94977.13;5046982;28;20203;-75
2022/05/16 00:35:15;;;;;;;10.45;5.65;;;;;;;13.33;79.67;94980.19;5054875;28;20208;-75
2022/05/16 00:37:42;;;;;;;7.05;4.65;;;;;;;13.36;79.77;94988.47;5054796;28;20578;-74
2022/05/16 00:40:11;;;;;;;12.77;4.93;;;;;;;13.26;79.88;94988.88;5054416;28;20199;-75
2022/05/16 00:42:38;;;;;;;10.40;5.85;;;;;;;13.34;79.88;94985.28;5040088;28;20315;-75
2022/05/16 00:45:09;;;;;;;5.78;4.70;;;;;;;13.23;79.73;94989.56;5065374;28;20343;-75
2022/05/16 00:47:36;;;;;;;6.75;5.00;;;;;;;13.19;79.58;94983.19;5051678;28;20198;-75
2022/05/16 00:50:06;;;;;;;11.32;5.93;;;;;;;13.18;79.89;94987.03;5043813;28;20649;-76
2022/05/16 00:52:37;;;;;;;11.50;5.63;;;;;;;13.28;79.53;94981.19;5051083;28;20211;-75
2022/05/16 00:55:09;;;;;;;6.28;4.70;;;;;;;13.28;79.12;94978.47;5034172;28;20599;-74
2022/05/16 00:57:38;;;;;;;9.43;5.05;;;;;;;13.24;79.63;94977.56;5047871;28;20200;-75
2022/05/16 01:00:10;;;;;;;7.35;4.78;;;;;;;13.28;79.62;94978.47;5046424;28;20274;-76
2022/05/16 01:05:24;;;;;;;10.95;5.78;;;;;;;13.08;80.46;94984.72;5040176;28;20202;-75
2022/05/16 01:07:51;;;;;;;7.63;5.30;;;;;;;13.07;80.61;94981.19;5044499;28;20271;-75
2022/05/16 01:10:22;;;;;;;7.28;5.18;;;;;;;13.03;80.48;94979.47;5046505;28;20318;-76
2022/05/16 01:12:52;;;;;;;6.50;4.57;;;;;;;12.96;80.63;94962.91;5043689;28;20223;-75
2022/05/16 01:15:31;;;;;;;6.30;4.75;;;;;;;12.99;80.51;94978.53;5040462;28;20235;-76
2022/05/16 01:17:58;;;;;;;6.43;4.45;;;;;;;13.02;80.21;94988.75;5041240;28;20196;-75
2022/05/16 01:20:39;;;;;;;8.82;5.40;;;;;;;13.03;79.40;94957.72;5046184;28;20234;-75
2022/05/16 01:23:08;;;;;;;10.32;4.25;;;;;;;12.98;79.41;94969.63;5046895;28;20222;-75
2022/05/16 01:25:35;;;;;;;6.97;4.57;;;;;;;12.94;79.34;94965.16;5041744;28;20208;-74
2022/05/16 01:28:04;;;;;;;9.65;4.88;;;;;;;12.91;79.65;94976.72;5039990;28;20213;-75
2022/05/16 01:30:34;;;;;;;7.03;4.63;;;;;;;12.88;79.26;94974.66;5045549;28;20212;-75
2022/05/16 01:33:01;;;;;;;6.30;4.68;;;;;;;12.88;79.74;94974.66;5046564;28;20203;-75
2022/05/16 01:35:31;;;;;;;5.97;4.65;;;;;;;12.95;79.02;94967.56;5042808;28;20203;-75
2022/05/16 01:40:45;;;;;;;5.95;4.50;;;;;;;12.73;79.61;94957.03;5052939;28;20258;-75
2022/05/16 01:43:13;;;;;;;10.15;4.47;;;;;;;12.92;79.14;94976.38;5042811;28;20238;-75
2022/05/16 01:45:42;;;;;;;5.80;4.13;;;;;;;12.86;78.97;94976.91;5059723;28;20270;-75
2022/05/16 01:48:10;;;;;;;6.55;4.38;;;;;;;12.86;78.06;94980.41;5033463;28;20227;-75
2022/05/16 01:50:38;;;;;;;5.88;3.83;;;;;;;12.64;78.37;94978.84;5046625;28;20642;-75
2022/05/16 01:53:06;;;;;;;4.85;3.75;;;;;;;12.55;77.90;94980.84;5052990;28;20263;-75
2022/05/16 01:55:33;;;;;;;7.05;4.32;;;;;;;12.48;78.01;94977.84;5040294;28;20200;-75
2022/05/16 01:58:01;;;;;;;9.85;4.72;;;;;;;12.40;78.39;94984.16;5053134;28;20694;-75
2022/05/16 02:00:28;;;;;;;5.65;3.42;;;;;;;12.36;78.47;94983.22;5053036;28;20214;-75
2022/05/16 02:02:55;;;;;;;6.05;3.80;;;;;;;12.30;78.67;94979.09;5052765;28;20231;-75
2022/05/16 02:05:24;;;;;;;4.95;3.95;;;;;;;12.42;78.45;94987.34;5039670;28;20207;-75
2022/05/16 02:07:51;;;;;;;7.53;4.22;;;;;;;12.46;78.49;94996.41;5053056;28;20203;-75
2022/05/16 02:10:20;;;;;;;7.28;3.97;;;;;;;12.43;78.50;94994.38;5053048;28;20300;-76
2022/05/16 02:12:48;;;;;;;6.40;4.20;;;;;;;12.41;78.60;94996.59;5043512;28;20228;-76
2022/05/16 02:15:20;;;;;;;5.63;3.88;;;;;;;12.48;78.54;94990.63;5045783;28;20708;-76
2022/05/16 02:17:47;;;;;;;5.15;3.85;;;;;;;12.52;78.47;94997.00;5042760;28;20206;-75
2022/05/16 02:20:14;;;;;;;7.03;3.30;;;;;;;12.45;78.03;94994.81;5039074;28;20698;-76
2022/05/16 02:25:27;;;;;;;7.22;4.63;;;;;;;12.23;79.70;94995.13;5039411;28;20234;-75
2022/05/16 02:27:55;;;;;;;8.30;5.00;;;;;;;12.25;79.75;94998.31;5052491;28;20258;-75
2022/05/16 02:30:23;;;;;;;7.15;4.53;;;;;;;12.16;80.55;94997.56;5039298;28;20200;-75
2022/05/16 02:32:51;;;;;;;10.65;5.07;;;;;;;12.03;81.15;94992.00;5051687;28;20203;-76
2022/05/16 02:35:19;;;;;;;8.40;3.97;;;;;;;12.07;81.09;94992.97;5039314;28;20662;-75
2022/05/16 02:37:46;;;;;;;6.30;3.97;;;;;;;12.12;81.01;94989.28;5038914;28;20216;-74
2022/05/16 02:40:13;;;;;;;8.52;4.40;;;;;;;12.17;80.89;94985.56;5052019;28;20223;-75
2022/05/16 02:42:40;;;;;;;7.57;5.88;;;;;;;12.16;80.72;94989.41;5050355;28;20235;-76
2022/05/16 02:45:08;;;;;;;9.45;6.22;;;;;;;12.23;80.98;94995.91;5062558;28;20341;-75
2022/05/16 02:47:36;;;;;;;11.27;7.28;;;;;;;12.07;81.22;94976.66;5050381;28;20196;-75
2022/05/16 02:50:04;;;;;;;7.78;5.68;;;;;;;12.22;81.26;94977.22;5040613;28;20662;-75
2022/05/16 02:52:31;;;;;;;8.30;5.35;;;;;;;12.22;80.80;94988.09;5037747;28;20745;-75
2022/05/16 02:55:00;;;;;;;5.55;4.68;;;;;;;12.23;80.95;94989.69;5042608;28;20215;-75
2022/05/16 02:57:27;;;;;;;8.60;6.43;;;;;;;12.20;80.68;94991.13;5047848;28;20215;-76
2022/05/16 02:59:55;;;;;;;9.13;5.93;;;;;;;12.10;80.77;94986.09;5051882;28;20211;-74
2022/05/16 03:02:22;;;;;;;13.07;6.07;;;;;;;12.00;80.96;94970.97;5051785;28;20235;-75
2022/05/16 03:04:50;;;;;;;10.90;6.43;;;;;;;12.21;80.54;95000.88;5051111;28;20231;-75
2022/05/16 03:07:17;;;;;;;8.80;4.70;;;;;;;12.27;80.69;94996.06;5051499;28;20208;-74
2022/05/16 03:09:44;;;;;;;5.82;4.38;;;;;;;12.33;80.93;94992.81;5041431;28;20211;-75
2022/05/16 03:12:12;;;;;;;6.75;4.95;;;;;;;12.05;82.40;94989.78;5045174;28;20627;-75
2022/05/16 03:14:38;;;;;;;11.02;5.05;;;;;;;12.17;82.47;94996.41;5041258;28;20208;-74
2022/05/16 03:17:06;;;;;;;9.13;5.45;;;;;;;12.21;82.55;94991.94;5037190;28;20691;-74
2022/05/16 03:19:35;;;;;;;8.90;5.85;;;;;;;12.61;81.10;94990.38;5040838;28;20236;-74
2022/05/16 03:22:04;;;;;;;8.35;5.38;;;;;;;13.03;79.48;94995.78;5045035;28;20737;-74
2022/05/16 03:24:31;;;;;;;7.43;4.53;;;;;;;13.50;76.44;94983.53;5042431;28;20215;-74
2022/05/16 03:26:58;;;;;;;7.75;4.65;;;;;;;14.09;73.85;94982.31;5051180;28;20195;-74
2022/05/16 03:29:26;;;;;;;6.45;4.50;;;;;;;14.02;73.46;94988.34;5039518;28;20291;-75
2022/05/16 03:31:54;;;;;;;4.40;4.00;;;;;;;14.62;69.30;94989.47;5044957;28;20223;-74
2022/05/16 03:34:21;;;;;;;5.78;4.60;;;;;;;14.90;68.84;94993.00;5043416;28;20211;-74
2022/05/16 03:36:48;;;;;;;5.45;4.45;;;;;;;14.91;70.09;94991.06;5038688;28;20196;-75
2022/05/16 03:42:01;;;;;;;6.30;4.75;;;;;;;16.15;66.52;94999.88;5050942;28;20222;-74
2022/05/16 03:44:28;;;;;;;7.20;4.53;;;;;;;17.64;62.99;94986.69;5059508;28;20258;-77
2022/05/16 03:46:54;;;;;;;6.32;4.30;;;;;;;18.31;58.48;94992.53;5051164;28;20239;-75
2022/05/16 03:49:21;;;;;;;7.10;4.10;;;;;;;18.92;57.17;94998.97;5050473;28;20200;-75
2022/05/16 03:51:48;;;;;;;7.95;4.75;;;;;;;19.48;55.95;94996.16;5051192;28;20225;-75
2022/05/16 03:54:17;;;;;;;10.32;5.00;;;;;;;20.08;54.35;94998.78;5037331;28;20208;-77
2022/05/16 03:56:44;;;;;;;8.00;5.68;;;;;;;20.86;52.56;95004.91;5040532;28;20226;-76
2022/05/16 03:59:12;;;;;;;9.52;5.60;;;;;;;21.35;51.65;94993.38;5044269;28;20555;-78
2022/05/16 04:01:39;;;;;;;7.47;5.57;;;;;;;21.62;50.52;95002.16;5041634;28;20231;-76
2022/05/16 04:04:06;;;;;;;13.15;4.53;;;;;;;22.54;48.84;94996.81;5036371;28;20318;-76
2022/05/16 04:06:34;;;;;;;6.93;4.80;;;;;;;22.03;49.27;95001.88;5039935;28;20566;-78
2022/05/16 04:09:01;;;;;;;8.98;4.90;;;;;;;22.81;48.25;94999.19;5044509;28;20205;-76
2022/05/16 04:11:29;;;;;;;10.38;6.05;;;;;;;22.08;49.77;94996.78;5042199;28;20227;-77
2022/05/16 04:13:56;;;;;;;10.88;6.18;;;;;;;23.52;46.54;94999.00;5037450;28;20211;-78
2022/05/16 04:16:24;;;;;;;8.88;6.70;;;;;;;24.08;45.41;95004.25;5038777;28;20223;-78
2022/05/16 04:18:51;;;;;;;7.43;6.13;;;;;;;24.10;44.95;95007.41;5043423;28;20330;-77
2022/05/16 04:21:17;;;;;;;9.13;6.72;;;;;;;23.31;46.71;95006.16;5042895;28;20206;-77
2022/05/16 04:23:45;;;;;;;9.95;6.80;;;;;;;24.48;44.56;95004.78;5050656;28;20734;-77
2022/05/16 04:26:12;;;;;;;9.40;7.13;;;;;;;24.42;44.47;95014.75;5050096;28;20219;-77
2022/05/16 04:28:40;;;;;;;12.60;7.15;;;;;;;25.32;42.45;94996.91;5050010;28;20199;-78
2022/05/16 04:31:07;;;;;;;11.18;7.00;;;;;;;25.79;41.75;95002.72;5050223;28;20219;-78
2022/05/16 04:33:35;;;;;;;7.40;6.63;;;;;;;25.26;42.25;95004.09;5050643;28;20210;-78
2022/05/16 04:36:02;;;;;;;13.30;7.18;;;;;;;25.71;41.50;95010.31;5050627;28;20275;-78
2022/05/16 04:38:29;;;;;;;8.93;6.93;;;;;;;26.35;40.06;95000.38;5050419;28;20207;-78
2022/05/16 04:43:41;;;;;;;10.73;7.60;;;;;;;27.87;37.73;95008.81;5046716;28;20252;-78
2022/05/16 04:46:08;;;;;;;10.05;7.22;;;;;;;26.92;39.12;95005.00;5063895;28;20238;-79
2022/05/16 04:48:36;;;;;;;12.18;7.43;;;;;;;27.04;39.30;95012.78;5049881;28;20206;-79
2022/05/16 04:51:02;;;;;;;9.30;7.25;;;;;;;26.57;40.03;95014.72;5050056;28;20210;-77
2022/05/16 04:53:29;;;;;;;8.75;7.57;;;;;;;26.72;39.21;95013.28;5050053;28;20213;-77
2022/05/16 04:55:56;;;;;;;10.77;7.78;;;;;;;26.59;39.21;95021.44;5037102;28;20211;-78
2022/05/16 04:58:23;;;;;;;10.70;7.65;;;;;;;27.43;38.20;95020.41;5050165;28;20208;-78
2022/05/16 05:00:51;;;;;;;10.55;7.82;;;;;;;27.84;37.26;95020.00;5046862;28;20207;-78
2022/05/16 05:03:18;;;;;;;8.63;7.53;;;;;;;27.14;38.79;95022.91;5034678;28;20243;-78
2022/05/16 05:05:45;;;;;;;10.77;8.10;;;;;;;25.88;40.45;95030.75;5048474;28;20200;-78
2022/05/16 05:08:12;;;;;;;10.40;7.40;;;;;;;26.43;40.03;95026.84;5048699;28;20219;-77
2022/05/16 05:16:15;;;;;;;16.75;9.23;;;;;;;26.30;38.96;95034.19;5049079;28;20278;-76
2022/05/16 05:18:42;;;;;;;9.80;8.23;;;;;;;27.11;38.39;95034.88;5043209;28;20203;-78
2022/05/16 05:21:10;;;;;;;11.07;8.48;;;;;;;26.53;39.29;95034.22;5048613;28;20287;-79
2022/05/16 05:23:39;;;;;;;10.85;8.52;;;;;;;28.00;36.87;95039.56;5039837;28;20231;-79
2022/05/16 05:26:06;;;;;;;12.20;8.18;;;;;;;28.13;36.29;95037.69;5053344;28;20708;-79
2022/05/16 05:28:34;;;;;;;12.18;7.63;;;;;;;28.85;35.26;95037.66;5040363;28;20282;-79
2022/05/16 05:31:01;;;;;;;15.02;7.97;;;;;;;29.70;33.72;95041.03;5042194;28;20236;-79
2022/05/16 05:33:30;;;;;;;13.10;8.27;;;;;;;29.30;34.17;95036.94;5046976;28;20204;-79
2022/05/16 05:35:57;;;;;;;10.90;8.15;;;;;;;27.09;37.69;95048.44;5046028;28;20226;-78
2022/05/16 05:38:27;;;;;;;14.50;8.20;;;;;;;27.47;37.38;95041.38;5053930;28;20594;-78
2022/05/16 05:40:53;;;;;;;11.10;7.70;;;;;;;29.19;35.18;95039.22;5053960;28;20565;-80
2022/05/16 05:43:21;;;;;;;11.25;7.40;;;;;;;29.12;34.91;95037.38;5058338;28;20230;-79
2022/05/16 05:45:49;;;;;;;8.75;7.35;;;;;;;29.64;34.12;95042.84;5059252;28;20240;-79
2022/05/16 05:48:16;;;;;;;12.52;7.97;;;;;;;29.77;33.36;95039.28;5053286;28;20224;-80
2022/05/16 05:50:45;;;;;;;7.63;6.78;;;;;;;28.88;34.13;95036.78;5052515;28;20718;-79
2022/05/16 05:53:11;;;;;;;9.93;7.72;;;;;;;29.26;33.78;95039.81;5053105;28;20203;-78
2022/05/16 05:55:39;;;;;;;11.10;7.45;;;;;;;29.10;34.04;95047.44;5052318;28;20207;-80
2022/05/16 05:58:06;;;;;;;8.50;7.70;;;;;;;29.10;33.68;95041.84;5033442;28;20267;-81
2022/05/16 06:00:32;;;;;;;10.32;7.72;;;;;;;29.95;33.09;95039.56;5034799;28;20735;-80
2022/05/16 06:03:00;;;;;;;12.27;7.18;;;;;;;30.48;32.93;95037.97;5044106;28;20224;-78
2022/05/16 06:05:28;;;;;;;8.77;7.07;;;;;;;29.62;33.04;95045.28;5035206;28;20208;-79
2022/05/16 06:07:57;;;;;;;6.90;5.85;;;;;;;30.17;32.45;95046.13;5044215;28;20251;-81
2022/05/16 06:10:23;;;;;;;8.20;5.93;;;;;;;29.11;33.82;95037.84;5046075;28;20211;-81
2022/05/16 06:12:50;;;;;;;7.50;6.22;;;;;;;30.23;32.22;95049.94;5041933;28;20210;-79
2022/05/16 06:15:18;;;;;;;6.97;6.05;;;;;;;30.09;32.52;95044.75;5049931;28;20230;-82
2022/05/16 06:17:46;;;;;;;7.70;6.00;;;;;;;29.73;32.73;95044.19;5042497;28;20208;-82
2022/05/16 06:20:15;;;;;;;8.95;6.30;;;;;;;29.16;33.94;95043.66;5039012;28;20195;-81
2022/05/16 06:22:42;;;;;;;7.97;6.10;;;;;;;29.38;33.94;95029.97;5042698;28;20254;-80
2022/05/16 06:27:57;;;;;;;10.98;6.63;;;;;;;28.77;34.25;95047.41;5039658;28;20207;-81
2022/05/16 06:30:24;;;;;;;8.32;6.80;;;;;;;29.80;32.86;95038.38;5039149;28;20266;-81
2022/05/16 06:32:51;;;;;;;7.47;6.53;;;;;;;29.17;33.19;95044.44;5039679;28;20208;-79
2022/05/16 06:35:19;;;;;;;7.93;6.82;;;;;;;29.81;32.19;95039.97;5039863;28;20268;-81
2022/05/16 06:37:46;;;;;;;10.82;5.78;;;;;;;30.97;31.67;95046.84;5052506;28;20226;-78
2022/05/16 06:40:17;;;;;;;7.00;5.72;;;;;;;31.65;30.31;95030.59;5052498;28;20204;-83
2022/05/16 06:42:44;;;;;;;7.70;6.10;;;;;;;30.35;31.89;95040.78;5050333;28;20199;-81
2022/05/16 06:45:11;;;;;;;7.22;6.40;;;;;;;29.81;32.62;95049.13;5063665;28;20227;-81
2022/05/16 06:47:39;;;;;;;8.02;6.50;;;;;;;28.48;34.69;95052.06;5049847;28;20710;-80
2022/05/16 06:50:08;;;;;;;8.98;7.10;;;;;;;28.38;35.42;95064.25;5040829;28;20209;-81
2022/05/16 06:52:35;;;;;;;7.72;6.80;;;;;;;29.11;34.38;95049.75;5039100;28;20208;-83
2022/05/16 06:55:03;;;;;;;10.57;6.18;;;;;;;31.07;32.11;95034.50;5041947;28;20218;-82
2022/05/16 06:57:33;;;;;;;11.25;6.40;;;;;;;31.82;30.75;95031.97;5035286;28;20200;-82
2022/05/16 07:00:00;;;;;;;8.00;6.05;;;;;;;31.73;30.16;95032.69;5041977;28;20231;-81
2022/05/16 07:02:27;;;;;;;6.97;6.28;;;;;;;31.96;29.67;95037.06;5044953;28;20196;-80
2022/05/16 07:04:53;;;;;;;11.05;7.20;;;;;;;31.10;30.46;95049.66;5042066;28;20632;-80
2022/05/16 07:07:20;;;;;;;7.13;5.97;;;;;;;32.06;30.08;95035.88;5048090;28;20235;-82
2022/05/16 07:09:47;;;;;;;8.70;6.32;;;;;;;30.75;31.95;95048.78;5042352;28;20248;-80
2022/05/16 07:12:14;;;;;;;11.82;6.93;;;;;;;30.91;31.35;95031.84;5038461;28;20289;-77
2022/05/16 07:14:45;;;;;;;8.98;7.07;;;;;;;27.72;36.07;95040.16;5040993;28;20231;-80
2022/05/16 07:17:12;;;;;;;9.07;6.93;;;;;;;28.80;34.88;95041.00;5044966;28;20192;-80
2022/05/16 07:19:39;;;;;;;13.18;7.30;;;;;;;29.87;33.30;95038.19;5042791;28;20262;-81
2022/05/16 07:22:10;;;;;;;13.80;6.55;;;;;;;30.26;32.62;95026.69;5038462;28;20227;-80
2022/05/16 07:24:37;;;;;;;10.73;6.90;;;;;;;31.27;31.71;95025.09;5038560;28;20311;-80
2022/05/16 07:29:51;;;;;;;16.90;8.27;;;;;;;30.17;33.13;95034.94;5044799;28;20234;-81
2022/05/16 07:32:18;;;;;;;7.22;5.90;;;;;;;29.03;32.40;95042.03;5031333;28;20212;-79
2022/05/16 07:34:45;;;;;;;7.07;6.22;;;;;;;29.48;32.30;95033.69;5044354;28;20787;-80
2022/05/16 07:37:13;;;;;;;8.90;6.28;;;;;;;29.52;31.23;95029.56;5040922;28;20232;-80
2022/05/16 07:39:39;;;;;;;8.07;6.18;;;;;;;29.75;31.95;95025.75;5050959;28;20218;-78
2022/05/16 07:42:09;;;;;;;10.15;7.30;;;;;;;27.48;34.90;95034.59;5051328;28;20203;-79
2022/05/16 07:44:37;;;;;;;8.45;6.50;;;;;;;27.69;35.01;95035.44;5060286;28;20238;-80
2022/05/16 07:47:07;;;;;;;12.98;8.18;;;;;;;27.11;35.37;95035.69;5050738;28;20240;-82
2022/05/16 07:49:34;;;;;;;17.27;8.65;;;;;;;28.17;34.64;95027.22;5037696;28;20207;-80
2022/05/16 07:52:00;;;;;;;9.45;7.28;;;;;;;29.06;33.55;95018.84;5050522;28;20195;-81
2022/05/16 07:54:27;;;;;;;9.45;5.47;;;;;;;27.24;35.13;95035.84;5038149;28;20655;-81
2022/05/16 07:56:54;;;;;;;9.05;5.88;;;;;;;27.09;35.73;95037.31;5038683;28;20200;-81
2022/05/16 07:59:21;;;;;;;10.50;6.40;;;;;;;26.12;35.90;95037.94;5044143;28;20220;-78
2022/05/16 08:01:48;;;;;;;8.30;6.45;;;;;;;28.05;34.13;95030.69;5031182;28;20235;-78
2022/05/16 08:04:16;;;;;;;11.15;5.97;;;;;;;28.18;33.48;95023.25;5043447;28;20703;-79
2022/05/16 08:06:43;;;;;;;8.85;7.80;;;;;;;26.58;36.34;95025.41;5031019;28;20228;-81
2022/05/16 08:11:54;;;;;;;5.90;5.22;;;;;;;25.92;36.43;95034.28;5044135;28;20660;-76
2022/05/16 08:14:21;;;;;;;7.97;5.25;;;;;;;25.22;36.41;95035.84;5038432;28;20216;-79
2022/05/16 08:16:48;;;;;;;7.03;5.25;;;;;;;25.61;36.20;95041.78;5036060;28;20273;-79
2022/05/16 08:19:17;;;;;;;8.02;4.63;;;;;;;26.18;35.80;95025.19;5030736;28;20223;-80
2022/05/16 08:21:45;;;;;;;9.57;5.35;;;;;;;26.72;34.64;95025.19;5045304;28;20231;-79
2022/05/16 08:24:12;;;;;;;9.77;4.90;;;;;;;27.00;34.12;95017.59;5041908;28;20224;-78
2022/05/16 08:26:40;;;;;;;8.20;3.88;;;;;;;26.78;33.34;95022.72;5043689;28;20203;-79
2022/05/16 08:29:07;;;;;;;6.00;4.00;;;;;;;25.98;33.75;95029.03;5039427;28;20210;-74
2022/05/16 08:31:34;;;;;;;8.77;3.35;;;;;;;24.88;35.11;95044.84;5048061;28;20646;-78
2022/05/16 08:34:01;;;;;;;4.75;3.53;;;;;;;24.94;35.72;95039.69;5039651;28;20227;-80
2022/05/16 08:42:09;;;;;;;4.78;3.10;;;;;;;25.11;33.17;95025.66;5029453;28;20223;-81
2022/05/16 08:44:43;;;;;;;5.38;2.78;;;;;;;25.59;35.05;95016.41;5065833;28;20221;-80
2022/05/16 08:47:17;;;;;;;5.70;3.63;;;;;;;26.25;32.91;95017.94;5058811;28;20206;-79
2022/05/16 08:49:48;;;;;;;6.43;3.25;;;;;;;26.16;32.07;95015.69;5046257;28;20199;-77
2022/05/16 08:52:27;;;;;;;8.73;2.67;;;;;;;25.24;31.50;95016.81;5047025;28;20250;-73
2022/05/16 08:55:00;;;;;;;11.43;3.80;;;;;;;24.27;34.96;95016.03;5042618;28;20202;-75
2022/05/16 08:57:31;;;;;;;6.03;2.85;;;;;;;24.80;33.60;95010.84;5051727;28;20204;-79
2022/05/16 09:00:04;;;;;;;3.60;2.55;;;;;;;25.69;31.72;95014.75;5043805;28;20195;-78
2022/05/16 09:02:35;;;;;;;5.43;2.60;;;;;;;25.52;30.50;95015.72;5050848;28;20196;-75
2022/05/16 09:05:12;;;;;;;4.22;2.60;;;;;;;26.37;29.42;95003.53;5045434;28;20308;-79
2022/05/16 09:07:45;;;;;;;2.78;2.05;;;;;;;25.74;28.29;95012.28;5041104;28;20206;-73
2022/05/16 09:10:14;;;;;;;8.18;2.20;;;;;;;25.13;28.06;95005.84;5040435;28;20200;-83
2022/05/16 09:12:57;;;;;;;4.93;2.30;;;;;;;25.99;28.48;95002.84;5042102;28;20231;-80
2022/05/16 09:15:39;;;;;;;2.42;1.85;;;;;;;25.99;29.40;95009.16;5050845;28;20605;-80
2022/05/16 09:18:24;;;;;;;5.20;2.05;;;;;;;26.67;29.13;94983.97;5046486;28;20200;-77
2022/05/16 09:21:01;;;;;;;5.07;2.17;;;;;;;26.05;28.31;94999.19;5042032;28;20200;-79
2022/05/16 09:23:45;;;;;;;6.85;1.80;;;;;;;25.27;26.50;94997.38;5050377;28;20268;-78
2022/05/16 09:26:28;;;;;;;18.20;3.97;;;;;;;25.66;27.98;94999.72;5046178;28;20191;-78
2022/05/16 09:29:01;;;;;;;4.22;1.83;;;;;;;24.82;29.12;95002.13;5041845;28;20218;-80
2022/05/16 09:31:31;;;;;;;6.82;2.13;;;;;;;24.82;28.17;94995.81;5050980;28;20226;-78
2022/05/16 09:34:00;;;;;;;2.55;1.58;;;;;;;25.09;26.02;94994.78;5043550;28;20200;-77
2022/05/16 09:36:33;;;;;;;2.90;1.73;;;;;;;24.86;25.22;94991.81;5052952;28;20211;-81
2022/05/16 09:39:02;;;;;;;4.75;1.83;;;;;;;25.32;27.31;94990.56;5053520;28;20207;-79
2022/05/16 09:41:40;;;;;;;2.60;1.50;;;;;;;25.01;26.73;94981.41;5053537;28;20211;-77
2022/05/16 09:44:13;;;;;;;2.50;1.60;;;;;;;25.55;26.90;94996.25;5039972;28;20212;-79
2022/05/16 09:46:42;;;;;;;3.25;1.30;;;;;;;25.10;26.94;94990.00;5040729;28;20641;-79
2022/05/16 09:49:15;;;;;;;3.17;1.80;;;;;;;25.86;26.49;94974.84;5051635;28;20207;-81
2022/05/16 09:51:45;;;;;;;1.98;1.70;;;;;;;26.02;27.61;94966.69;5033358;28;20279;-81
2022/05/16 09:54:19;;;;;;;3.25;1.60;;;;;;;25.49;28.40;94981.25;5049033;28;20235;-81
2022/05/16 09:57:15;;;;;;;2.30;1.50;;;;;;;25.66;25.94;94971.94;5053467;28;20197;-81
2022/05/16 09:59:47;;;;;;;4.65;1.90;;;;;;;25.62;27.86;94967.63;5050995;28;20215;-75
2022/05/16 10:02:19;;;;;;;1.95;1.38;;;;;;;25.53;25.64;94972.88;5049758;28;20559;-77
2022/05/16 10:04:49;;;;;;;4.22;1.42;;;;;;;25.83;26.64;94959.06;5042249;28;20766;-80
2022/05/16 10:07:16;;;;;;;2.65;1.50;;;;;;;26.55;26.05;94942.88;5039602;28;20203;-79
2022/05/16 10:09:47;;;;;;;1.98;1.50;;;;;;;26.15;26.65;94942.69;5052827;28;20215;-76
2022/05/16 10:12:17;;;;;;;1.95;1.55;;;;;;;25.77;26.27;94955.94;5039326;28;20733;-77
2022/05/16 10:14:46;;;;;;;2.40;1.60;;;;;;;25.44;26.81;94956.72;5040966;28;20215;-74
2022/05/16 10:17:22;;;;;;;5.25;1.90;;;;;;;25.83;27.37;94936.84;5046234;28;20197;-83
2022/05/16 10:19:56;;;;;;;5.88;1.70;;;;;;;26.42;27.23;94928.00;5033362;28;20533;-78
2022/05/16 10:22:25;;;;;;;2.53;1.60;;;;;;;26.73;26.80;94932.25;5052394;28;20657;-78
2022/05/16 10:24:57;;;;;;;3.15;1.63;;;;;;;26.17;27.84;94923.63;5050328;28;20235;-84
2022/05/16 10:27:28;;;;;;;2.95;1.63;;;;;;;25.62;27.88;94926.00;5042234;28;20554;-80
2022/05/16 10:29:58;;;;;;;2.92;1.70;;;;;;;25.40;28.46;94920.72;5052572;28;20196;-72
2022/05/16 10:35:23;;;;;;;2.25;1.80;;;;;;;25.13;31.00;94922.66;5040153;28;20601;-78
2022/05/16 10:37:54;;;;;;;5.20;2.00;;;;;;;25.34;31.65;94916.81;5052841;28;20241;-73
2022/05/16 10:40:30;;;;;;;3.38;2.35;;;;;;;25.77;30.56;94914.31;5052497;28;20203;-78
2022/05/16 10:43:21;;;;;;;7.60;2.35;;;;;;;26.25;29.53;94901.28;5038882;28;20196;-77
2022/05/16 10:45:52;;;;;;;3.22;2.05;;;;;;;25.67;29.54;94906.13;5058974;28;20247;-78
2022/05/16 10:48:39;;;;;;;3.92;2.10;;;;;;;25.29;30.32;94908.97;5045208;28;20647;-81
2022/05/16 10:51:11;;;;;;;2.97;1.70;;;;;;;25.22;29.60;94908.28;5036137;28;20216;-81
2022/05/16 10:53:56;;;;;;;4.57;2.00;;;;;;;25.16;31.42;94910.72;5051987;28;20201;-80
2022/05/16 10:56:41;;;;;;;2.30;1.73;;;;;;;25.09;30.76;94906.03;5031946;28;20224;-79
2022/05/16 10:59:17;;;;;;;2.38;1.77;;;;;;;25.57;31.37;94907.00;5035327;28;20196;-77
2022/05/16 11:01:53;;;;;;;3.25;1.77;;;;;;;25.55;31.19;94893.59;5051942;28;20191;-75
2022/05/16 11:04:41;;;;;;;2.65;1.88;;;;;;;25.71;31.32;94893.75;5037894;28;20226;-83
2022/05/16 11:07:17;;;;;;;2.70;2.08;;;;;;;25.50;30.94;94894.81;5038507;28;20366;-78
2022/05/16 11:09:52;;;;;;;4.63;2.10;;;;;;;25.75;31.87;94893.72;5040725;28;20196;-78
2022/05/16 11:12:28;;;;;;;3.15;1.60;;;;;;;25.78;30.61;94879.00;5036191;28;20654;-79
2022/05/16 11:15:05;;;;;;;3.20;1.70;;;;;;;25.38;30.15;94881.53;5038721;28;20222;-75
2022/05/16 11:17:42;;;;;;;3.42;1.50;;;;;;;25.31;30.61;94889.91;5039623;28;20249;-74
2022/05/16 11:20:12;;;;;;;3.08;1.70;;;;;;;25.43;30.03;94883.03;5051333;28;20210;-74
2022/05/16 11:22:41;;;;;;;1.70;1.27;;;;;;;25.24;29.43;94878.94;5051371;28;20279;-78
2022/05/16 11:25:15;;;;;;;1.90;1.42;;;;;;;25.11;30.12;94880.69;5048414;28;20312;-77
2022/05/16 11:27:57;;;;;;;1.65;1.20;;;;;;;25.03;29.62;94881.94;5041888;28;20293;-79
2022/05/16 11:30:36;;;;;;;7.85;2.03;;;;;;;25.30;30.93;94874.47;5037702;28;20227;-78
2022/05/16 11:33:15;;;;;;;3.55;1.70;;;;;;;25.37;29.30;94868.84;5037923;28;20255;-78
2022/05/16 11:35:45;;;;;;;2.65;1.55;;;;;;;25.81;29.84;94867.06;5041306;28;20287;-76
2022/05/16 11:38:25;;;;;;;3.10;1.63;;;;;;;25.68;26.32;94868.84;5049096;28;20218;-72
2022/05/16 11:41:00;;;;;;;3.17;1.55;;;;;;;25.82;28.08;94863.09;5050500;28;20699;-78
2022/05/16 11:43:32;;;;;;;4.00;1.52;;;;;;;25.70;28.68;94860.88;5044165;28;20222;-78
2022/05/16 11:46:18;;;;;;;2.17;1.60;;;;;;;25.98;29.02;94866.00;5055506;28;20701;-73
2022/05/16 11:48:54;;;;;;;2.13;1.40;;;;;;;25.92;29.25;94851.03;5046563;28;20242;-73
2022/05/16 11:51:29;;;;;;;1.65;1.38;;;;;;;25.84;28.93;94855.09;5049874;28;20188;-78
2022/05/16 11:54:02;;;;;;;2.03;1.40;;;;;;;26.17;30.19;94845.84;5048405;28;20194;-77
2022/05/16 12:02:12;;;;;;;4.00;1.48;;;;;;;26.39;28.82;94845.50;5039347;28;20222;-82
2022/05/16 12:04:44;;;;;;;2.08;1.42;;;;;;;26.16;28.08;94827.59;5045579;28;20191;-77
2022/05/16 12:07:21;;;;;;;4.05;1.40;;;;;;;26.38;27.79;94827.25;5049177;28;20226;-75
2022/05/16 12:09:54;;;;;;;2.22;1.25;;;;;;;26.72;27.72;94830.59;5035629;28;20231;-80
2022/05/16 12:12:31;;;;;;;1.52;1.30;;;;;;;26.40;27.00;94830.41;5040033;28;20530;-78
2022/05/16 12:15:27;;;;;;;4.10;1.33;;;;;;;26.15;28.56;94826.03;5046498;28;20604;-76
2022/05/16 12:17:57;;;;;;;1.48;1.30;;;;;;;26.03;27.38;94829.44;5048484;28;20195;-81
2022/05/16 12:20:38;;;;;;;2.08;1.10;;;;;;;26.49;27.44;94813.97;5049600;28;20203;-78
2022/05/16 12:23:06;;;;;;;3.97;1.30;;;;;;;26.74;26.76;94819.84;5049156;28;20192;-76
2022/05/16 12:25:36;;;;;;;3.05;1.50;;;;;;;26.54;28.38;94805.13;5046233;28;20698;-79